Freire 705 — YBIE2 — position and weather

sailwx.info

Track history (hours):
 
Tides and Currents Weather Stations Pressure Air Temp Water Temp Dewpoint Dewpoint Depression Visibility Wind Speed Wind Dir Waves Ship Positions

Freire 705

Last reported at 2017-Dec-15 02:29 UTC. Time now 2017-Dec-15 04:45 UTC.
Position S 07°12' E 112°44'.

Length 111 m; draft 6 m.

Type: Sailing vessel. MMSI: 225303000.

Date/timePositionNaut miles runAvg speedWind from/ knotsBaromVisibWave heightAir tempDewpointWater temp
2017-Dec-15 02:29S 07°12' E 112°44'9 0.8
2017-Dec-14 15:31S 07°04' E 112°39'0 0.0
2017-Dec-14 13:28S 07°04' E 112°39'0 0.0
2017-Dec-14 11:20S 07°04' E 112°39'0 0.2
2017-Dec-14 11:00S 07°04' E 112°39'0 0.2
2017-Dec-14 10:27S 07°04' E 112°39'0 0.3
2017-Dec-14 09:57S 07°04' E 112°39'1 2.1
2017-Dec-14 09:27S 07°05' E 112°39'0 1.0
2017-Dec-14 08:58S 07°05' E 112°40'1 1.9
2017-Dec-14 08:30S 07°04' E 112°40'4 7.9
2017-Dec-14 08:00S 07°01' E 112°41'510.7
2017-Dec-14 07:30S 06°56' E 112°43'5 9.6
2017-Dec-14 06:56S 06°51' E 112°45'510.2
2017-Dec-14 06:27S 06°46' E 112°45'  
2017-Dec-10 03:28N 01°10' E 103°59'1 0.2
2017-Dec-10 00:31N 01°10' E 103°60'0 0.0
2017-Dec-09 15:43N 01°10' E 103°60'0 0.0
2017-Dec-09 14:04N 01°10' E 103°60'0 0.0
2017-Dec-08 23:22N 01°10' E 103°60'0 0.0
2017-Dec-08 21:16N 01°10' E 103°60'0 0.0
2017-Dec-08 20:58N 01°10' E 103°60'0 0.0
2017-Dec-08 14:52N 01°10' E 103°60'0 0.0
2017-Dec-08 14:22N 01°10' E 103°60'0 0.0
2017-Dec-08 11:58N 01°10' E 103°60'0 0.0
2017-Dec-08 11:28N 01°10' E 103°60'0 0.0
2017-Dec-08 10:49N 01°10' E 103°60'0 0.0
2017-Dec-08 10:16N 01°10' E 103°60'0 0.0
2017-Dec-08 09:52N 01°10' E 103°60'0 0.0
2017-Dec-08 09:28N 01°10' E 103°60'0 0.0
2017-Dec-07 02:59N 01°10' E 103°60'  
Track history (hours):
 
Tides and Currents Weather Stations Pressure Air Temp Water Temp Dewpoint Dewpoint Depression Visibility Wind Speed Wind Dir Waves Ship Positions

Freire 705

Last reported at 2017-Dec-15 02:29 UTC. Time now 2017-Dec-15 04:45 UTC.
Position S 07°12' E 112°44'.

Length 111 m; draft 6 m.

Type: Sailing vessel. MMSI: 225303000.

Date/timePositionNaut miles runAvg speedWind from/ knotsBaromVisibWave heightAir tempDewpointWater temp
2017-Dec-15 02:29S 07°12' E 112°44'9 0.8
2017-Dec-14 15:31S 07°04' E 112°39'0 0.0
2017-Dec-14 13:28S 07°04' E 112°39'0 0.0
2017-Dec-14 11:20S 07°04' E 112°39'0 0.2
2017-Dec-14 11:00S 07°04' E 112°39'0 0.2
2017-Dec-14 10:27S 07°04' E 112°39'0 0.3
2017-Dec-14 09:57S 07°04' E 112°39'1 2.1
2017-Dec-14 09:27S 07°05' E 112°39'0 1.0
2017-Dec-14 08:58S 07°05' E 112°40'1 1.9
2017-Dec-14 08:30S 07°04' E 112°40'4 7.9
2017-Dec-14 08:00S 07°01' E 112°41'510.7
2017-Dec-14 07:30S 06°56' E 112°43'5 9.6
2017-Dec-14 06:56S 06°51' E 112°45'510.2
2017-Dec-14 06:27S 06°46' E 112°45'  
2017-Dec-10 03:28N 01°10' E 103°59'1 0.2
2017-Dec-10 00:31N 01°10' E 103°60'0 0.0
2017-Dec-09 15:43N 01°10' E 103°60'0 0.0
2017-Dec-09 14:04N 01°10' E 103°60'0 0.0
2017-Dec-08 23:22N 01°10' E 103°60'0 0.0
2017-Dec-08 21:16N 01°10' E 103°60'0 0.0
2017-Dec-08 20:58N 01°10' E 103°60'0 0.0
2017-Dec-08 14:52N 01°10' E 103°60'0 0.0
2017-Dec-08 14:22N 01°10' E 103°60'0 0.0
2017-Dec-08 11:58N 01°10' E 103°60'0 0.0
2017-Dec-08 11:28N 01°10' E 103°60'0 0.0
2017-Dec-08 10:49N 01°10' E 103°60'0 0.0
2017-Dec-08 10:16N 01°10' E 103°60'0 0.0
2017-Dec-08 09:52N 01°10' E 103°60'0 0.0
2017-Dec-08 09:28N 01°10' E 103°60'0 0.0
2017-Dec-07 02:59N 01°10' E 103°60'  

Dump ship's entire track history